sensor_id;sensor_type;location;lat;lon;timestamp;temperature;humidity
20463;DHT22;10390;53.566;9.980;2023-11-18T00:00:57;26.40;1.00
20463;DHT22;10390;53.566;9.980;2023-11-18T00:03:24;26.40;1.00
20463;DHT22;10390;53.566;9.980;2023-11-18T00:05:50;26.40;1.00
20463;DHT22;10390;53.566;9.980;2023-11-18T00:08:15;26.40;1.00
20463;DHT22;10390;53.566;9.980;2023-11-18T00:10:42;26.40;1.00
20463;DHT22;10390;53.566;9.980;2023-11-18T00:13:08;26.40;1.00
20463;DHT22;10390;53.566;9.980;2023-11-18T00:15:34;26.40;1.00
20463;DHT22;10390;53.566;9.980;2023-11-18T00:18:03;26.40;1.00
20463;DHT22;10390;53.566;9.980;2023-11-18T00:20:28;26.40;1.00
20463;DHT22;10390;53.566;9.980;2023-11-18T00:22:56;26.40;1.00
20463;DHT22;10390;53.566;9.980;2023-11-18T00:25:22;26.40;1.00
20463;DHT22;10390;53.566;9.980;2023-11-18T00:27:48;26.40;1.00
20463;DHT22;10390;53.566;9.980;2023-11-18T00:30:14;26.40;1.00
20463;DHT22;10390;53.566;9.980;2023-11-18T00:32:39;26.40;1.00
20463;DHT22;10390;53.566;9.980;2023-11-18T00:35:06;26.40;1.00
20463;DHT22;10390;53.566;9.980;2023-11-18T00:37:32;26.40;1.00
20463;DHT22;10390;53.566;9.980;2023-11-18T00:39:58;26.40;1.00
20463;DHT22;10390;53.566;9.980;2023-11-18T00:42:24;26.40;1.00
20463;DHT22;10390;53.566;9.980;2023-11-18T00:44:50;26.40;1.00
20463;DHT22;10390;53.566;9.980;2023-11-18T00:47:15;26.40;1.00
20463;DHT22;10390;53.566;9.980;2023-11-18T00:49:41;26.40;1.00
20463;DHT22;10390;53.566;9.980;2023-11-18T00:52:07;26.40;1.00
20463;DHT22;10390;53.566;9.980;2023-11-18T00:54:32;26.40;1.00
20463;DHT22;10390;53.566;9.980;2023-11-18T00:56:59;26.40;1.00
20463;DHT22;10390;53.566;9.980;2023-11-18T00:59:25;26.40;1.00
20463;DHT22;10390;53.566;9.980;2023-11-18T01:01:52;26.50;1.00
20463;DHT22;10390;53.566;9.980;2023-11-18T01:04:17;26.50;1.00
20463;DHT22;10390;53.566;9.980;2023-11-18T01:06:45;26.50;1.00
20463;DHT22;10390;53.566;9.980;2023-11-18T01:09:10;26.40;1.00
20463;DHT22;10390;53.566;9.980;2023-11-18T01:11:37;26.50;1.00
20463;DHT22;10390;53.566;9.980;2023-11-18T01:14:02;26.50;1.00
20463;DHT22;10390;53.566;9.980;2023-11-18T01:16:28;26.50;1.00
20463;DHT22;10390;53.566;9.980;2023-11-18T01:18:54;26.50;1.00
20463;DHT22;10390;53.566;9.980;2023-11-18T01:21:20;26.50;1.00
20463;DHT22;10390;53.566;9.980;2023-11-18T01:23:47;26.50;1.00
20463;DHT22;10390;53.566;9.980;2023-11-18T01:26:14;26.50;1.00
20463;DHT22;10390;53.566;9.980;2023-11-18T01:28:40;26.50;1.00
20463;DHT22;10390;53.566;9.980;2023-11-18T01:31:11;26.50;1.00
20463;DHT22;10390;53.566;9.980;2023-11-18T01:33:40;26.50;1.00
20463;DHT22;10390;53.566;9.980;2023-11-18T01:36:06;26.50;1.00
20463;DHT22;10390;53.566;9.980;2023-11-18T01:38:36;26.50;1.00
20463;DHT22;10390;53.566;9.980;2023-11-18T01:41:05;26.50;1.00
20463;DHT22;10390;53.566;9.980;2023-11-18T01:43:32;26.50;1.00
20463;DHT22;10390;53.566;9.980;2023-11-18T01:46:03;26.50;1.00
20463;DHT22;10390;53.566;9.980;2023-11-18T01:48:31;26.50;1.00
20463;DHT22;10390;53.566;9.980;2023-11-18T01:50:58;26.50;1.00
20463;DHT22;10390;53.566;9.980;2023-11-18T01:53:25;26.50;1.00
20463;DHT22;10390;53.566;9.980;2023-11-18T01:55:51;26.50;1.00
20463;DHT22;10390;53.566;9.980;2023-11-18T01:58:17;26.50;1.00
20463;DHT22;10390;53.566;9.980;2023-11-18T02:00:45;26.50;1.00
20463;DHT22;10390;53.566;9.980;2023-11-18T02:03:12;26.50;1.00
20463;DHT22;10390;53.566;9.980;2023-11-18T02:05:38;26.50;1.00
20463;DHT22;10390;53.566;9.980;2023-11-18T02:08:04;26.50;1.00
20463;DHT22;10390;53.566;9.980;2023-11-18T02:10:54;26.50;1.00
20463;DHT22;10390;53.566;9.980;2023-11-18T02:13:23;26.50;1.00
20463;DHT22;10390;53.566;9.980;2023-11-18T02:15:56;26.50;1.00
20463;DHT22;10390;53.566;9.980;2023-11-18T02:18:29;26.50;1.00
20463;DHT22;10390;53.566;9.980;2023-11-18T02:20:56;26.50;1.00
20463;DHT22;10390;53.566;9.980;2023-11-18T02:23:28;26.50;1.00
20463;DHT22;10390;53.566;9.980;2023-11-18T02:25:54;26.50;1.00
20463;DHT22;10390;53.566;9.980;2023-11-18T02:28:23;26.50;1.00
20463;DHT22;10390;53.566;9.980;2023-11-18T02:30:56;26.50;1.00
20463;DHT22;10390;53.566;9.980;2023-11-18T02:33:30;26.50;1.00
20463;DHT22;10390;53.566;9.980;2023-11-18T02:36:36;26.50;1.00
20463;DHT22;10390;53.566;9.980;2023-11-18T02:39:08;26.50;1.00
20463;DHT22;10390;53.566;9.980;2023-11-18T02:41:38;26.50;1.00
20463;DHT22;10390;53.566;9.980;2023-11-18T02:44:06;26.60;1.00
20463;DHT22;10390;53.566;9.980;2023-11-18T02:46:36;26.60;1.00
20463;DHT22;10390;53.566;9.980;2023-11-18T02:49:02;26.50;1.00
20463;DHT22;10390;53.566;9.980;2023-11-18T02:51:28;26.60;1.00
20463;DHT22;10390;53.566;9.980;2023-11-18T02:53:57;26.60;1.00
20463;DHT22;10390;53.566;9.980;2023-11-18T02:56:22;26.60;1.00
20463;DHT22;10390;53.566;9.980;2023-11-18T02:58:48;26.50;1.00
20463;DHT22;10390;53.566;9.980;2023-11-18T03:01:14;26.50;1.00
20463;DHT22;10390;53.566;9.980;2023-11-18T03:03:39;26.50;1.00
20463;DHT22;10390;53.566;9.980;2023-11-18T03:06:05;26.60;1.00
20463;DHT22;10390;53.566;9.980;2023-11-18T03:08:31;26.60;1.00
20463;DHT22;10390;53.566;9.980;2023-11-18T03:10:57;26.60;1.00
20463;DHT22;10390;53.566;9.980;2023-11-18T03:13:24;26.60;1.00
20463;DHT22;10390;53.566;9.980;2023-11-18T03:15:50;26.60;1.00
20463;DHT22;10390;53.566;9.980;2023-11-18T03:18:17;26.60;1.00
20463;DHT22;10390;53.566;9.980;2023-11-18T03:20:42;26.60;1.00
20463;DHT22;10390;53.566;9.980;2023-11-18T03:23:08;26.60;1.00
20463;DHT22;10390;53.566;9.980;2023-11-18T03:25:34;26.60;1.00
20463;DHT22;10390;53.566;9.980;2023-11-18T03:28:03;26.60;1.00
20463;DHT22;10390;53.566;9.980;2023-11-18T03:30:32;26.60;1.00
20463;DHT22;10390;53.566;9.980;2023-11-18T03:32:57;26.60;1.00
20463;DHT22;10390;53.566;9.980;2023-11-18T03:35:23;26.60;1.00
20463;DHT22;10390;53.566;9.980;2023-11-18T03:37:49;26.60;1.00
20463;DHT22;10390;53.566;9.980;2023-11-18T03:40:16;26.60;1.00
20463;DHT22;10390;53.566;9.980;2023-11-18T03:42:42;26.60;1.00
20463;DHT22;10390;53.566;9.980;2023-11-18T03:45:08;26.60;1.00
20463;DHT22;10390;53.566;9.980;2023-11-18T03:47:34;26.60;1.00
20463;DHT22;10390;53.566;9.980;2023-11-18T03:50:00;26.60;1.00
20463;DHT22;10390;53.566;9.980;2023-11-18T03:52:26;26.60;1.00
20463;DHT22;10390;53.566;9.980;2023-11-18T03:54:53;26.60;1.00
20463;DHT22;10390;53.566;9.980;2023-11-18T03:57:20;26.60;1.00
20463;DHT22;10390;53.566;9.980;2023-11-18T03:59:46;26.60;1.00
20463;DHT22;10390;53.566;9.980;2023-11-18T04:02:12;26.60;1.00
20463;DHT22;10390;53.566;9.980;2023-11-18T04:04:37;26.60;1.00
20463;DHT22;10390;53.566;9.980;2023-11-18T04:07:04;26.60;1.00
20463;DHT22;10390;53.566;9.980;2023-11-18T04:09:30;26.60;1.00
20463;DHT22;10390;53.566;9.980;2023-11-18T04:11:56;26.60;1.00
20463;DHT22;10390;53.566;9.980;2023-11-18T04:14:22;26.60;1.00
20463;DHT22;10390;53.566;9.980;2023-11-18T04:16:48;26.60;1.00
20463;DHT22;10390;53.566;9.980;2023-11-18T04:19:16;26.60;1.00
20463;DHT22;10390;53.566;9.980;2023-11-18T04:21:42;26.60;1.00
20463;DHT22;10390;53.566;9.980;2023-11-18T04:24:10;26.60;1.00
20463;DHT22;10390;53.566;9.980;2023-11-18T04:26:36;26.60;1.00
20463;DHT22;10390;53.566;9.980;2023-11-18T04:29:02;26.60;1.00
20463;DHT22;10390;53.566;9.980;2023-11-18T04:31:27;26.60;1.00
20463;DHT22;10390;53.566;9.980;2023-11-18T04:33:53;26.60;1.00
20463;DHT22;10390;53.566;9.980;2023-11-18T04:36:21;26.60;1.00
20463;DHT22;10390;53.566;9.980;2023-11-18T04:38:47;26.60;1.00
20463;DHT22;10390;53.566;9.980;2023-11-18T04:41:15;26.60;1.00
20463;DHT22;10390;53.566;9.980;2023-11-18T04:43:40;26.60;1.00
20463;DHT22;10390;53.566;9.980;2023-11-18T04:46:07;26.60;1.00
20463;DHT22;10390;53.566;9.980;2023-11-18T04:48:33;26.60;1.00
20463;DHT22;10390;53.566;9.980;2023-11-18T04:51:00;26.60;1.00
20463;DHT22;10390;53.566;9.980;2023-11-18T04:53:26;26.60;1.00
20463;DHT22;10390;53.566;9.980;2023-11-18T04:55:51;26.60;1.00
20463;DHT22;10390;53.566;9.980;2023-11-18T04:58:18;26.70;1.00
20463;DHT22;10390;53.566;9.980;2023-11-18T05:00:44;26.60;1.00
20463;DHT22;10390;53.566;9.980;2023-11-18T05:03:10;26.60;1.00
20463;DHT22;10390;53.566;9.980;2023-11-18T05:05:36;26.60;1.00
20463;DHT22;10390;53.566;9.980;2023-11-18T05:08:06;26.70;1.00
20463;DHT22;10390;53.566;9.980;2023-11-18T05:10:32;26.60;1.00
20463;DHT22;10390;53.566;9.980;2023-11-18T05:12:59;26.70;1.00
20463;DHT22;10390;53.566;9.980;2023-11-18T05:15:24;26.60;1.00
20463;DHT22;10390;53.566;9.980;2023-11-18T05:17:51;26.60;1.00
20463;DHT22;10390;53.566;9.980;2023-11-18T05:20:17;26.60;1.00
20463;DHT22;10390;53.566;9.980;2023-11-18T05:22:43;26.60;1.00
20463;DHT22;10390;53.566;9.980;2023-11-18T05:25:09;26.60;1.00
20463;DHT22;10390;53.566;9.980;2023-11-18T05:27:38;26.60;1.00
20463;DHT22;10390;53.566;9.980;2023-11-18T05:30:06;26.60;1.00
20463;DHT22;10390;53.566;9.980;2023-11-18T05:32:32;26.60;1.00
20463;DHT22;10390;53.566;9.980;2023-11-18T05:34:59;26.60;1.00
20463;DHT22;10390;53.566;9.980;2023-11-18T05:37:24;26.60;1.00
20463;DHT22;10390;53.566;9.980;2023-11-18T05:39:51;26.60;1.00
20463;DHT22;10390;53.566;9.980;2023-11-18T05:42:25;26.60;1.00
20463;DHT22;10390;53.566;9.980;2023-11-18T05:44:51;26.60;1.00
20463;DHT22;10390;53.566;9.980;2023-11-18T05:47:23;26.60;1.00
20463;DHT22;10390;53.566;9.980;2023-11-18T05:49:49;26.70;1.00
20463;DHT22;10390;53.566;9.980;2023-11-18T05:52:15;26.60;1.00
20463;DHT22;10390;53.566;9.980;2023-11-18T05:54:40;26.60;1.00
20463;DHT22;10390;53.566;9.980;2023-11-18T05:57:06;26.70;1.00
20463;DHT22;10390;53.566;9.980;2023-11-18T05:59:32;26.70;1.00
20463;DHT22;10390;53.566;9.980;2023-11-18T06:01:58;26.60;1.00
20463;DHT22;10390;53.566;9.980;2023-11-18T06:04:23;26.60;1.00
20463;DHT22;10390;53.566;9.980;2023-11-18T06:06:49;26.60;1.00
20463;DHT22;10390;53.566;9.980;2023-11-18T06:09:14;26.60;1.00
20463;DHT22;10390;53.566;9.980;2023-11-18T06:11:47;26.60;1.00
20463;DHT22;10390;53.566;9.980;2023-11-18T06:14:12;26.60;1.00
20463;DHT22;10390;53.566;9.980;2023-11-18T06:16:38;26.60;1.00
20463;DHT22;10390;53.566;9.980;2023-11-18T06:19:06;26.60;1.00
20463;DHT22;10390;53.566;9.980;2023-11-18T06:21:32;26.60;1.00
20463;DHT22;10390;53.566;9.980;2023-11-18T06:24:01;26.60;1.00
20463;DHT22;10390;53.566;9.980;2023-11-18T06:26:29;26.60;1.00
20463;DHT22;10390;53.566;9.980;2023-11-18T06:28:55;26.60;1.00
20463;DHT22;10390;53.566;9.980;2023-11-18T06:31:21;26.60;1.00
20463;DHT22;10390;53.566;9.980;2023-11-18T06:33:49;26.60;1.00
20463;DHT22;10390;53.566;9.980;2023-11-18T06:38:42;26.60;1.00
20463;DHT22;10390;53.566;9.980;2023-11-18T06:41:09;26.60;1.00
20463;DHT22;10390;53.566;9.980;2023-11-18T06:43:41;26.60;1.00
20463;DHT22;10390;53.566;9.980;2023-11-18T06:46:23;26.60;1.00
20463;DHT22;10390;53.566;9.980;2023-11-18T06:48:50;26.60;1.00
20463;DHT22;10390;53.566;9.980;2023-11-18T06:51:20;26.60;1.00
20463;DHT22;10390;53.566;9.980;2023-11-18T06:53:53;26.60;1.00
20463;DHT22;10390;53.566;9.980;2023-11-18T06:56:22;26.60;1.00
20463;DHT22;10390;53.566;9.980;2023-11-18T06:58:48;26.60;1.00
20463;DHT22;10390;53.566;9.980;2023-11-18T07:01:14;26.60;1.00
20463;DHT22;10390;53.566;9.980;2023-11-18T07:03:44;26.70;1.00
20463;DHT22;10390;53.566;9.980;2023-11-18T07:06:11;26.70;1.00
20463;DHT22;10390;53.566;9.980;2023-11-18T07:08:39;26.70;1.00
20463;DHT22;10390;53.566;9.980;2023-11-18T07:11:06;26.70;1.00
20463;DHT22;10390;53.566;9.980;2023-11-18T07:13:32;26.70;1.00
20463;DHT22;10390;53.566;9.980;2023-11-18T07:16:01;26.70;1.00
20463;DHT22;10390;53.566;9.980;2023-11-18T07:18:29;26.60;1.00
20463;DHT22;10390;53.566;9.980;2023-11-18T07:21:00;26.60;1.00
20463;DHT22;10390;53.566;9.980;2023-11-18T07:23:26;26.50;1.00
20463;DHT22;10390;53.566;9.980;2023-11-18T07:25:52;26.60;1.00
20463;DHT22;10390;53.566;9.980;2023-11-18T07:28:18;26.50;1.00
20463;DHT22;10390;53.566;9.980;2023-11-18T07:30:52;26.50;1.00
20463;DHT22;10390;53.566;9.980;2023-11-18T07:33:24;26.50;1.00
20463;DHT22;10390;53.566;9.980;2023-11-18T07:35:53;26.50;1.00
20463;DHT22;10390;53.566;9.980;2023-11-18T07:38:19;26.40;1.00
20463;DHT22;10390;53.566;9.980;2023-11-18T07:40:55;26.40;1.00
20463;DHT22;10390;53.566;9.980;2023-11-18T07:43:23;26.40;1.00
20463;DHT22;10390;53.566;9.980;2023-11-18T07:45:49;26.40;1.00
20463;DHT22;10390;53.566;9.980;2023-11-18T07:48:21;26.40;1.00
20463;DHT22;10390;53.566;9.980;2023-11-18T07:50:47;26.40;1.00
20463;DHT22;10390;53.566;9.980;2023-11-18T07:53:13;26.30;1.00
20463;DHT22;10390;53.566;9.980;2023-11-18T07:55:39;26.30;1.00
20463;DHT22;10390;53.566;9.980;2023-11-18T07:58:12;26.30;1.00
20463;DHT22;10390;53.566;9.980;2023-11-18T08:00:41;26.30;1.00
20463;DHT22;10390;53.566;9.980;2023-11-18T08:03:09;26.30;1.00
20463;DHT22;10390;53.566;9.980;2023-11-18T08:05:38;26.30;1.00
20463;DHT22;10390;53.566;9.980;2023-11-18T08:08:06;26.20;1.00
20463;DHT22;10390;53.566;9.980;2023-11-18T08:10:33;26.20;1.00
20463;DHT22;10390;53.566;9.980;2023-11-18T08:12:59;26.20;1.00
20463;DHT22;10390;53.566;9.980;2023-11-18T08:15:25;26.20;1.00
20463;DHT22;10390;53.566;9.980;2023-11-18T08:17:52;26.20;1.00
20463;DHT22;10390;53.566;9.980;2023-11-18T08:20:18;26.20;1.00
20463;DHT22;10390;53.566;9.980;2023-11-18T08:22:46;26.10;1.00
20463;DHT22;10390;53.566;9.980;2023-11-18T08:25:12;26.10;1.00
20463;DHT22;10390;53.566;9.980;2023-11-18T08:27:41;26.00;1.00
20463;DHT22;10390;53.566;9.980;2023-11-18T08:30:08;25.90;1.00
20463;DHT22;10390;53.566;9.980;2023-11-18T08:32:40;25.80;1.00
20463;DHT22;10390;53.566;9.980;2023-11-18T08:35:09;25.80;1.00
20463;DHT22;10390;53.566;9.980;2023-11-18T08:37:38;25.80;1.00
20463;DHT22;10390;53.566;9.980;2023-11-18T08:40:05;25.80;1.00
20463;DHT22;10390;53.566;9.980;2023-11-18T08:42:53;25.80;1.00
20463;DHT22;10390;53.566;9.980;2023-11-18T08:45:27;25.80;1.00
20463;DHT22;10390;53.566;9.980;2023-11-18T08:47:58;25.90;1.00
20463;DHT22;10390;53.566;9.980;2023-11-18T08:50:24;25.90;1.00
20463;DHT22;10390;53.566;9.980;2023-11-18T08:52:53;26.00;1.00
20463;DHT22;10390;53.566;9.980;2023-11-18T08:55:31;26.00;1.00
20463;DHT22;10390;53.566;9.980;2023-11-18T08:58:10;26.10;1.00
20463;DHT22;10390;53.566;9.980;2023-11-18T09:00:47;26.20;1.00
20463;DHT22;10390;53.566;9.980;2023-11-18T09:03:35;26.10;1.00
20463;DHT22;10390;53.566;9.980;2023-11-18T09:06:06;26.10;1.00
20463;DHT22;10390;53.566;9.980;2023-11-18T09:08:43;26.00;1.00
20463;DHT22;10390;53.566;9.980;2023-11-18T09:11:14;26.00;1.00
20463;DHT22;10390;53.566;9.980;2023-11-18T09:13:44;26.00;1.00
20463;DHT22;10390;53.566;9.980;2023-11-18T09:16:11;25.90;1.00
20463;DHT22;10390;53.566;9.980;2023-11-18T09:18:40;25.90;1.00
20463;DHT22;10390;53.566;9.980;2023-11-18T09:21:06;25.90;1.00
20463;DHT22;10390;53.566;9.980;2023-11-18T09:23:34;25.90;1.00
20463;DHT22;10390;53.566;9.980;2023-11-18T09:26:00;25.90;1.00
20463;DHT22;10390;53.566;9.980;2023-11-18T09:28:27;25.90;1.00
20463;DHT22;10390;53.566;9.980;2023-11-18T09:30:59;26.00;1.00
20463;DHT22;10390;53.566;9.980;2023-11-18T09:33:26;25.90;1.00
20463;DHT22;10390;53.566;9.980;2023-11-18T09:36:02;26.00;1.00
20463;DHT22;10390;53.566;9.980;2023-11-18T09:38:29;26.00;1.00
20463;DHT22;10390;53.566;9.980;2023-11-18T09:40:59;26.00;1.00
20463;DHT22;10390;53.566;9.980;2023-11-18T09:43:31;26.00;1.00
20463;DHT22;10390;53.566;9.980;2023-11-18T09:46:28;26.00;1.00
20463;DHT22;10390;53.566;9.980;2023-11-18T09:49:17;26.00;1.00
20463;DHT22;10390;53.566;9.980;2023-11-18T09:51:57;26.10;1.00
20463;DHT22;10390;53.566;9.980;2023-11-18T09:54:27;26.10;1.00
20463;DHT22;10390;53.566;9.980;2023-11-18T09:57:59;26.10;1.00
20463;DHT22;10390;53.566;9.980;2023-11-18T10:00:00;26.10;1.00
20463;DHT22;10390;53.566;9.980;2023-11-18T10:02:39;26.10;1.00
20463;DHT22;10390;53.566;9.980;2023-11-18T10:05:06;26.20;1.00
20463;DHT22;10390;53.566;9.980;2023-11-18T10:07:39;26.20;1.00
20463;DHT22;10390;53.566;9.980;2023-11-18T10:10:07;26.20;1.00
20463;DHT22;10390;53.566;9.980;2023-11-18T10:12:43;26.30;1.00
20463;DHT22;10390;53.566;9.980;2023-11-18T10:15:21;26.30;1.00
20463;DHT22;10390;53.566;9.980;2023-11-18T10:17:52;26.30;1.00
20463;DHT22;10390;53.566;9.980;2023-11-18T10:20:23;26.30;1.00
20463;DHT22;10390;53.566;9.980;2023-11-18T10:23:10;26.30;1.00
20463;DHT22;10390;53.566;9.980;2023-11-18T10:25:37;26.30;1.00
20463;DHT22;10390;53.566;9.980;2023-11-18T10:28:07;26.30;1.00
20463;DHT22;10390;53.566;9.980;2023-11-18T10:30:45;26.30;1.00
20463;DHT22;10390;53.566;9.980;2023-11-18T10:33:17;26.30;1.00
20463;DHT22;10390;53.566;9.980;2023-11-18T10:35:52;26.20;1.00
20463;DHT22;10390;53.566;9.980;2023-11-18T10:38:21;26.20;1.00
20463;DHT22;10390;53.566;9.980;2023-11-18T10:40:56;26.10;1.00
20463;DHT22;10390;53.566;9.980;2023-11-18T10:43:23;26.10;1.00
20463;DHT22;10390;53.566;9.980;2023-11-18T10:46:09;26.00;1.00
20463;DHT22;10390;53.566;9.980;2023-11-18T10:48:46;26.00;1.00
20463;DHT22;10390;53.566;9.980;2023-11-18T10:51:17;26.00;1.00
20463;DHT22;10390;53.566;9.980;2023-11-18T10:53:47;25.90;1.00
20463;DHT22;10390;53.566;9.980;2023-11-18T10:56:22;26.00;1.00
20463;DHT22;10390;53.566;9.980;2023-11-18T10:59:05;26.00;1.00
20463;DHT22;10390;53.566;9.980;2023-11-18T11:01:35;26.00;1.00
20463;DHT22;10390;53.566;9.980;2023-11-18T11:04:10;26.00;1.00
20463;DHT22;10390;53.566;9.980;2023-11-18T11:06:49;26.00;1.00
20463;DHT22;10390;53.566;9.980;2023-11-18T11:09:22;26.00;1.00
20463;DHT22;10390;53.566;9.980;2023-11-18T11:12:10;26.00;1.00
20463;DHT22;10390;53.566;9.980;2023-11-18T11:14:52;26.10;1.00
20463;DHT22;10390;53.566;9.980;2023-11-18T11:17:20;26.10;1.00
20463;DHT22;10390;53.566;9.980;2023-11-18T11:20:06;26.10;1.00
20463;DHT22;10390;53.566;9.980;2023-11-18T11:23:05;26.10;1.00
20463;DHT22;10390;53.566;9.980;2023-11-18T11:26:13;26.10;1.00
20463;DHT22;10390;53.566;9.980;2023-11-18T11:31:39;26.10;1.00
20463;DHT22;10390;53.566;9.980;2023-11-18T11:34:16;26.10;1.00
20463;DHT22;10390;53.566;9.980;2023-11-18T11:36:46;26.10;1.00
20463;DHT22;10390;53.566;9.980;2023-11-18T11:39:13;26.10;1.00
20463;DHT22;10390;53.566;9.980;2023-11-18T11:41:45;26.10;1.00
20463;DHT22;10390;53.566;9.980;2023-11-18T11:44:13;26.10;1.00
20463;DHT22;10390;53.566;9.980;2023-11-18T11:46:40;26.10;1.00
20463;DHT22;10390;53.566;9.980;2023-11-18T11:49:09;26.10;1.00
20463;DHT22;10390;53.566;9.980;2023-11-18T11:52:10;26.10;1.00
20463;DHT22;10390;53.566;9.980;2023-11-18T11:54:45;26.00;1.00
20463;DHT22;10390;53.566;9.980;2023-11-18T11:57:11;26.00;1.00
20463;DHT22;10390;53.566;9.980;2023-11-18T12:02:15;26.10;1.00
20463;DHT22;10390;53.566;9.980;2023-11-18T12:04:45;26.10;1.00
20463;DHT22;10390;53.566;9.980;2023-11-18T12:07:12;26.10;1.00
20463;DHT22;10390;53.566;9.980;2023-11-18T12:09:41;26.10;1.00
20463;DHT22;10390;53.566;9.980;2023-11-18T12:12:20;26.20;1.00
20463;DHT22;10390;53.566;9.980;2023-11-18T12:14:59;26.20;1.00
20463;DHT22;10390;53.566;9.980;2023-11-18T12:20:43;26.10;1.00
20463;DHT22;10390;53.566;9.980;2023-11-18T12:23:19;26.10;1.00
20463;DHT22;10390;53.566;9.980;2023-11-18T12:25:52;26.10;1.00
20463;DHT22;10390;53.566;9.980;2023-11-18T12:28:27;26.10;1.00
20463;DHT22;10390;53.566;9.980;2023-11-18T12:30:54;26.10;1.00
20463;DHT22;10390;53.566;9.980;2023-11-18T12:34:01;26.10;1.00
20463;DHT22;10390;53.566;9.980;2023-11-18T12:37:01;26.10;1.00
20463;DHT22;10390;53.566;9.980;2023-11-18T12:42:57;26.10;1.00
20463;DHT22;10390;53.566;9.980;2023-11-18T12:48:05;26.10;1.00
20463;DHT22;10390;53.566;9.980;2023-11-18T12:50:41;26.10;1.00
20463;DHT22;10390;53.566;9.980;2023-11-18T12:53:11;26.10;1.00
20463;DHT22;10390;53.566;9.980;2023-11-18T12:55:40;26.10;1.00
20463;DHT22;10390;53.566;9.980;2023-11-18T12:58:07;26.10;1.00
20463;DHT22;10390;53.566;9.980;2023-11-18T13:00:32;26.10;1.00
20463;DHT22;10390;53.566;9.980;2023-11-18T13:03:00;26.10;1.00
20463;DHT22;10390;53.566;9.980;2023-11-18T13:05:25;26.00;1.00
20463;DHT22;10390;53.566;9.980;2023-11-18T13:07:56;26.10;1.00
20463;DHT22;10390;53.566;9.980;2023-11-18T13:10:23;26.00;1.00
20463;DHT22;10390;53.566;9.980;2023-11-18T13:12:49;26.00;1.00
20463;DHT22;10390;53.566;9.980;2023-11-18T13:15:16;26.00;1.00
20463;DHT22;10390;53.566;9.980;2023-11-18T13:18:05;26.00;1.00
20463;DHT22;10390;53.566;9.980;2023-11-18T13:20:35;26.00;1.00
20463;DHT22;10390;53.566;9.980;2023-11-18T13:23:02;26.00;1.00
20463;DHT22;10390;53.566;9.980;2023-11-18T13:25:34;26.00;1.00
20463;DHT22;10390;53.566;9.980;2023-11-18T13:28:03;25.90;1.00
20463;DHT22;10390;53.566;9.980;2023-11-18T13:30:29;25.90;1.00
20463;DHT22;10390;53.566;9.980;2023-11-18T13:32:55;25.90;1.00
20463;DHT22;10390;53.566;9.980;2023-11-18T13:35:21;25.90;1.00
20463;DHT22;10390;53.566;9.980;2023-11-18T13:37:49;25.90;1.00
20463;DHT22;10390;53.566;9.980;2023-11-18T13:40:15;25.90;1.00
20463;DHT22;10390;53.566;9.980;2023-11-18T13:42:43;25.80;1.00
20463;DHT22;10390;53.566;9.980;2023-11-18T13:45:12;25.80;1.00
20463;DHT22;10390;53.566;9.980;2023-11-18T13:47:47;25.80;1.00
20463;DHT22;10390;53.566;9.980;2023-11-18T13:50:13;25.80;1.00
20463;DHT22;10390;53.566;9.980;2023-11-18T13:52:42;25.80;1.00
20463;DHT22;10390;53.566;9.980;2023-11-18T13:55:10;25.80;1.00
20463;DHT22;10390;53.566;9.980;2023-11-18T13:57:42;25.80;1.00
20463;DHT22;10390;53.566;9.980;2023-11-18T14:00:09;25.80;1.00
20463;DHT22;10390;53.566;9.980;2023-11-18T14:02:40;25.80;1.00
20463;DHT22;10390;53.566;9.980;2023-11-18T14:05:15;25.80;1.00
20463;DHT22;10390;53.566;9.980;2023-11-18T14:07:42;25.80;1.00
20463;DHT22;10390;53.566;9.980;2023-11-18T14:10:09;25.70;1.00
20463;DHT22;10390;53.566;9.980;2023-11-18T14:12:39;25.80;1.00
20463;DHT22;10390;53.566;9.980;2023-11-18T14:15:05;25.80;1.00
20463;DHT22;10390;53.566;9.980;2023-11-18T14:17:35;25.70;1.00
20463;DHT22;10390;53.566;9.980;2023-11-18T14:20:01;25.70;1.00
20463;DHT22;10390;53.566;9.980;2023-11-18T14:22:27;25.80;1.00
20463;DHT22;10390;53.566;9.980;2023-11-18T14:24:53;25.70;1.00
20463;DHT22;10390;53.566;9.980;2023-11-18T14:27:19;25.60;1.00
20463;DHT22;10390;53.566;9.980;2023-11-18T14:29:44;25.70;1.00
20463;DHT22;10390;53.566;9.980;2023-11-18T14:32:11;25.70;1.00
20463;DHT22;10390;53.566;9.980;2023-11-18T14:34:39;25.70;1.00
20463;DHT22;10390;53.566;9.980;2023-11-18T14:37:07;25.70;1.00
20463;DHT22;10390;53.566;9.980;2023-11-18T14:39:32;25.70;1.00
20463;DHT22;10390;53.566;9.980;2023-11-18T14:41:58;25.70;1.00
20463;DHT22;10390;53.566;9.980;2023-11-18T14:44:24;25.70;1.00
20463;DHT22;10390;53.566;9.980;2023-11-18T14:46:51;25.70;1.00
20463;DHT22;10390;53.566;9.980;2023-11-18T14:49:17;25.70;1.00
20463;DHT22;10390;53.566;9.980;2023-11-18T14:51:43;25.70;1.00
20463;DHT22;10390;53.566;9.980;2023-11-18T14:54:09;25.70;1.00
20463;DHT22;10390;53.566;9.980;2023-11-18T14:56:34;25.70;1.00
20463;DHT22;10390;53.566;9.980;2023-11-18T14:59:00;25.70;1.00
20463;DHT22;10390;53.566;9.980;2023-11-18T15:01:26;25.70;1.00
20463;DHT22;10390;53.566;9.980;2023-11-18T15:03:52;25.70;1.00
20463;DHT22;10390;53.566;9.980;2023-11-18T15:06:27;25.70;1.00
20463;DHT22;10390;53.566;9.980;2023-11-18T15:08:53;25.70;1.00
20463;DHT22;10390;53.566;9.980;2023-11-18T15:11:23;25.60;1.00
20463;DHT22;10390;53.566;9.980;2023-11-18T15:13:52;25.60;1.00
20463;DHT22;10390;53.566;9.980;2023-11-18T15:16:21;25.60;1.00
20463;DHT22;10390;53.566;9.980;2023-11-18T15:18:48;25.60;1.00
20463;DHT22;10390;53.566;9.980;2023-11-18T15:21:17;25.50;1.00
20463;DHT22;10390;53.566;9.980;2023-11-18T15:23:43;25.50;1.00
20463;DHT22;10390;53.566;9.980;2023-11-18T15:26:09;25.50;1.00
20463;DHT22;10390;53.566;9.980;2023-11-18T15:28:35;25.50;1.00
20463;DHT22;10390;53.566;9.980;2023-11-18T15:31:01;25.50;1.00
20463;DHT22;10390;53.566;9.980;2023-11-18T15:33:29;25.50;1.00
20463;DHT22;10390;53.566;9.980;2023-11-18T15:35:55;25.60;1.00
20463;DHT22;10390;53.566;9.980;2023-11-18T15:38:20;25.60;1.00
20463;DHT22;10390;53.566;9.980;2023-11-18T15:40:50;25.70;1.00
20463;DHT22;10390;53.566;9.980;2023-11-18T15:43:15;25.80;1.00
20463;DHT22;10390;53.566;9.980;2023-11-18T15:45:42;25.80;1.00
20463;DHT22;10390;53.566;9.980;2023-11-18T15:48:10;25.90;1.00
20463;DHT22;10390;53.566;9.980;2023-11-18T15:50:36;26.00;1.00
20463;DHT22;10390;53.566;9.980;2023-11-18T15:53:03;26.00;1.00
20463;DHT22;10390;53.566;9.980;2023-11-18T15:55:31;26.10;1.00
20463;DHT22;10390;53.566;9.980;2023-11-18T15:57:57;26.20;1.00
20463;DHT22;10390;53.566;9.980;2023-11-18T16:00:24;26.20;1.00
20463;DHT22;10390;53.566;9.980;2023-11-18T16:02:54;26.20;1.00
20463;DHT22;10390;53.566;9.980;2023-11-18T16:05:28;26.30;1.00
20463;DHT22;10390;53.566;9.980;2023-11-18T16:07:58;26.30;1.00
20463;DHT22;10390;53.566;9.980;2023-11-18T16:10:25;26.40;1.00
20463;DHT22;10390;53.566;9.980;2023-11-18T16:15:19;26.40;1.00
20463;DHT22;10390;53.566;9.980;2023-11-18T16:17:45;26.40;1.00